createdAt,value
2023-05-10T00:01:48.107Z,74.27
2023-05-10T00:04:28.109Z,74.76
2023-05-10T00:07:09.335Z,74.34
2023-05-10T00:09:36.025Z,74.08
2023-05-10T00:12:03.028Z,74.25
2023-05-10T00:14:31.867Z,73.84
2023-05-10T00:16:58.657Z,75.78
2023-05-10T00:19:25.398Z,75.97
2023-05-10T00:21:53.273Z,75.83
2023-05-10T00:24:20.248Z,76.41
2023-05-10T00:26:54.619Z,75.94
2023-05-10T00:29:21.269Z,74.87
2023-05-10T00:31:51.341Z,75.74
2023-05-10T00:34:18.256Z,75.42
2023-05-10T00:36:47.151Z,75.60
2023-05-10T00:39:16.993Z,74.91
2023-05-10T00:42:00.691Z,76.06
2023-05-10T00:44:29.935Z,75.90
2023-05-10T00:46:56.639Z,75.42
2023-05-10T00:49:25.215Z,76.21
2023-05-10T00:52:09.150Z,76.50
2023-05-10T00:54:39.119Z,77.93
2023-05-10T00:57:05.839Z,77.76
2023-05-10T00:59:33.285Z,77.70
2023-05-10T01:02:00.171Z,78.25
2023-05-10T01:04:26.988Z,76.71
2023-05-10T01:06:54.769Z,77.45
2023-05-10T01:09:36.099Z,76.25
2023-05-10T01:12:04.251Z,76.81
2023-05-10T01:14:44.410Z,76.13
2023-05-10T01:17:23.833Z,76.79
2023-05-10T01:19:53.071Z,78.00
2023-05-10T01:22:41.732Z,78.89
2023-05-10T01:25:26.640Z,78.83
2023-05-10T01:27:59.100Z,79.20
2023-05-10T01:30:42.359Z,78.48
2023-05-10T01:33:17.235Z,79.17
2023-05-10T01:36:12.971Z,78.06
2023-05-10T01:38:48.521Z,78.18
2023-05-10T01:41:25.081Z,77.76
2023-05-10T01:44:19.301Z,78.85
2023-05-10T01:46:54.116Z,79.16
2023-05-10T01:49:44.816Z,80.19
2023-05-10T01:52:21.975Z,79.83
2023-05-10T01:55:02.276Z,79.85
2023-05-10T01:57:35.120Z,80.89
2023-05-10T02:00:08.391Z,80.63
2023-05-10T02:02:43.430Z,81.56
2023-05-10T02:05:16.721Z,81.32
2023-05-10T02:08:07.319Z,83.10
2023-05-10T02:10:40.719Z,82.93
2023-05-10T02:13:09.403Z,83.51
2023-05-10T02:15:38.157Z,83.23
2023-05-10T02:18:07.125Z,83.87
2023-05-10T02:20:36.121Z,84.33
2023-05-10T02:23:04.445Z,84.66
2023-05-10T02:25:32.655Z,85.22
2023-05-10T02:28:11.801Z,84.28
2023-05-10T02:31:25.858Z,86.15
2023-05-10T02:33:58.295Z,87.18
2023-05-10T02:36:28.816Z,87.96
2023-05-10T02:39:02.814Z,87.43
2023-05-10T02:41:33.492Z,86.05
2023-05-10T02:44:03.806Z,88.02
2023-05-10T02:46:42.588Z,88.94
2023-05-10T02:49:09.568Z,88.32
2023-05-10T02:51:42.107Z,89.16
2023-05-10T02:54:13.765Z,90.21
2023-05-10T02:56:48.673Z,90.48
2023-05-10T02:59:15.582Z,89.55
2023-05-10T03:01:44.720Z,90.32
2023-05-10T03:04:11.837Z,90.01
2023-05-10T03:06:38.998Z,90.84
2023-05-10T03:09:13.325Z,92.59
2023-05-10T03:12:10.183Z,92.77
2023-05-10T03:14:48.995Z,91.58
2023-05-10T03:17:40.031Z,92.65
2023-05-10T03:20:17.556Z,92.65
2023-05-10T03:22:48.166Z,92.94
2023-05-10T03:25:17.677Z,92.93
2023-05-10T03:27:46.209Z,92.40
2023-05-10T03:30:14.077Z,93.11
2023-05-10T03:32:40.945Z,92.98
2023-05-10T03:35:09.650Z,93.87
2023-05-10T03:37:36.954Z,92.67
2023-05-10T03:40:04.675Z,92.84
2023-05-10T03:42:31.589Z,95.08
2023-05-10T03:44:58.255Z,93.28
2023-05-10T03:47:24.969Z,93.07
2023-05-10T03:49:51.657Z,93.45
2023-05-10T03:52:18.256Z,93.94
2023-05-10T03:54:44.918Z,93.38
2023-05-10T03:57:11.544Z,92.52
2023-05-10T03:59:38.178Z,93.78
2023-05-10T04:02:04.830Z,92.23
2023-05-10T04:04:31.463Z,93.01
2023-05-10T04:06:58.121Z,93.07
2023-05-10T04:09:25.081Z,93.65
2023-05-10T04:11:51.705Z,94.89
2023-05-10T04:14:18.456Z,93.12
2023-05-10T04:16:45.062Z,92.42
2023-05-10T04:19:11.987Z,92.02
2023-05-10T04:21:38.580Z,92.18
2023-05-10T04:24:05.354Z,90.57
2023-05-10T04:26:32.358Z,91.47
2023-05-10T04:28:58.962Z,89.92
2023-05-10T04:31:25.718Z,89.02
2023-05-10T04:33:52.527Z,90.19
2023-05-10T04:36:19.272Z,91.28
2023-05-10T04:38:45.881Z,91.24
2023-05-10T04:41:12.741Z,89.99
2023-05-10T04:43:39.741Z,89.69
2023-05-10T04:46:07.015Z,88.19
2023-05-10T04:48:33.812Z,87.12
2023-05-10T04:51:00.732Z,85.39
2023-05-10T04:53:27.376Z,86.02
2023-05-10T04:55:54.043Z,87.24
2023-05-10T04:58:20.673Z,84.75
2023-05-10T05:00:47.281Z,83.84
2023-05-10T05:03:14.113Z,83.84
2023-05-10T05:05:40.764Z,82.78
2023-05-10T05:08:07.347Z,80.48
2023-05-10T05:10:33.985Z,81.76
2023-05-10T05:13:00.812Z,79.85
2023-05-10T05:15:27.515Z,79.14
2023-05-10T05:17:54.714Z,77.08
2023-05-10T05:20:21.495Z,78.15
2023-05-10T05:22:48.122Z,77.17
2023-05-10T05:25:16.077Z,77.09
2023-05-10T05:27:42.781Z,77.97
2023-05-10T05:30:09.846Z,76.51
2023-05-10T05:32:36.525Z,74.10
2023-05-10T05:35:03.376Z,72.57
2023-05-10T05:37:30.126Z,72.63
2023-05-10T05:39:56.807Z,72.23
2023-05-10T05:42:23.636Z,70.77
2023-05-10T05:44:50.335Z,71.49
2023-05-10T05:47:17.018Z,70.39
2023-05-10T05:49:43.705Z,68.64
2023-05-10T05:52:10.266Z,68.90
2023-05-10T05:54:36.877Z,68.66
2023-05-10T05:57:03.708Z,68.32
2023-05-10T05:59:30.540Z,66.62
2023-05-10T06:01:57.111Z,66.28
2023-05-10T06:04:23.935Z,64.25
2023-05-10T06:06:50.577Z,64.43
2023-05-10T06:09:17.215Z,64.22
2023-05-10T06:11:43.998Z,63.90
2023-05-10T06:14:10.742Z,62.42
2023-05-10T06:16:37.530Z,63.20
2023-05-10T06:19:04.138Z,63.31
2023-05-10T06:21:31.201Z,63.40
2023-05-10T06:23:57.961Z,62.55
2023-05-10T06:26:24.627Z,61.04
2023-05-10T06:28:51.269Z,61.46
2023-05-10T06:31:18.196Z,60.54
2023-05-10T06:33:44.785Z,61.54
2023-05-10T06:36:11.393Z,60.72
2023-05-10T06:38:38.287Z,60.02
2023-05-10T06:41:04.901Z,57.99
2023-05-10T06:43:31.496Z,57.41
2023-05-10T06:45:58.578Z,58.06
2023-05-10T06:48:25.318Z,59.29
2023-05-10T06:50:51.988Z,58.69
2023-05-10T06:53:18.811Z,58.74
2023-05-10T06:55:45.405Z,56.79
2023-05-10T06:58:12.138Z,57.08
2023-05-10T07:00:41.695Z,57.79
2023-05-10T07:03:08.538Z,56.29
2023-05-10T07:05:35.600Z,54.11
2023-05-10T07:08:02.628Z,55.77
2023-05-10T07:10:29.387Z,54.08
2023-05-10T07:12:56.061Z,54.28
2023-05-10T07:15:22.992Z,54.12
2023-05-10T07:17:49.750Z,53.83
2023-05-10T07:20:16.666Z,53.06
2023-05-10T07:22:43.337Z,52.85
2023-05-10T07:25:10.165Z,52.70
2023-05-10T07:27:36.917Z,56.32
2023-05-10T07:30:03.696Z,52.11
2023-05-10T07:32:30.366Z,52.92
2023-05-10T07:34:57.067Z,52.14
2023-05-10T07:37:23.725Z,50.06
2023-05-10T07:39:50.321Z,48.83
2023-05-10T07:42:16.937Z,50.42
2023-05-10T07:44:44.316Z,49.94
2023-05-10T07:47:10.897Z,49.60
2023-05-10T07:49:37.498Z,49.60
2023-05-10T07:52:04.578Z,50.36
2023-05-10T07:54:31.168Z,50.29
2023-05-10T07:56:57.728Z,49.62
2023-05-10T07:59:24.346Z,49.07
2023-05-10T08:01:50.937Z,49.47
2023-05-10T08:04:17.641Z,49.54
2023-05-10T08:06:44.307Z,49.48
2023-05-10T08:09:11.911Z,49.84
2023-05-10T08:11:38.505Z,50.09
2023-05-10T08:14:05.213Z,47.58
2023-05-10T08:16:31.962Z,47.99
2023-05-10T08:18:58.613Z,47.83
2023-05-10T08:21:25.280Z,48.47
2023-05-10T08:23:51.964Z,49.50
2023-05-10T08:26:18.539Z,48.47
2023-05-10T08:28:45.229Z,46.86
2023-05-10T08:31:13.088Z,47.03
2023-05-10T08:33:41.438Z,47.08
2023-05-10T08:36:09.087Z,48.49
2023-05-10T08:38:35.789Z,48.17
2023-05-10T08:41:03.617Z,45.86
2023-05-10T08:43:31.408Z,46.73
2023-05-10T08:46:03.969Z,45.83
2023-05-10T08:48:31.872Z,44.86
2023-05-10T08:51:00.996Z,46.17
2023-05-10T08:53:30.049Z,46.35
2023-05-10T08:55:56.858Z,46.76
2023-05-10T08:58:23.664Z,46.11
2023-05-10T09:00:53.599Z,45.44
2023-05-10T09:03:20.375Z,44.72
2023-05-10T09:05:47.496Z,44.69
2023-05-10T09:08:17.308Z,44.61
2023-05-10T09:10:45.716Z,44.66
2023-05-10T09:13:12.939Z,43.87
2023-05-10T09:15:40.095Z,44.12
2023-05-10T09:18:06.932Z,42.78
2023-05-10T09:20:33.774Z,44.14
2023-05-10T09:23:00.570Z,43.56
2023-05-10T09:25:27.248Z,43.29
2023-05-10T09:27:54.102Z,43.73
2023-05-10T09:30:29.305Z,44.41
2023-05-10T09:32:57.025Z,43.29
2023-05-10T09:35:28.813Z,42.74
2023-05-10T09:37:58.507Z,43.17
2023-05-10T09:40:26.890Z,44.10
2023-05-10T09:43:03.491Z,42.31
2023-05-10T09:45:31.941Z,42.92
2023-05-10T09:48:00.165Z,44.12
2023-05-10T09:50:27.786Z,42.63
2023-05-10T09:53:00.149Z,43.09
2023-05-10T09:55:39.465Z,44.32
2023-05-10T09:58:11.118Z,43.36
2023-05-10T10:00:38.362Z,42.07
2023-05-10T10:03:05.651Z,42.49
2023-05-10T10:05:36.663Z,43.33
2023-05-10T10:08:06.595Z,42.63
2023-05-10T10:10:34.677Z,42.31
2023-05-10T10:13:02.732Z,40.87
2023-05-10T10:15:29.374Z,41.53
2023-05-10T10:17:55.994Z,42.32
2023-05-10T10:20:23.927Z,42.24
2023-05-10T10:22:50.779Z,40.30
2023-05-10T10:25:19.359Z,41.01
2023-05-10T10:27:58.060Z,39.89
2023-05-10T10:30:52.345Z,41.42
2023-05-10T10:33:58.135Z,40.66
2023-05-10T10:36:24.875Z,41.65
2023-05-10T10:39:03.855Z,41.70
2023-05-10T10:41:37.889Z,40.34
2023-05-10T10:44:26.109Z,39.21
2023-05-10T10:47:25.642Z,39.16
2023-05-10T10:50:04.550Z,39.53
2023-05-10T10:52:36.361Z,39.09
2023-05-10T10:55:11.494Z,39.95
2023-05-10T10:57:41.160Z,40.83
2023-05-10T11:00:21.060Z,39.90
2023-05-10T11:02:52.811Z,38.29
2023-05-10T11:05:28.473Z,40.18
2023-05-10T11:08:00.808Z,39.11
2023-05-10T11:10:30.975Z,39.03
2023-05-10T11:13:10.954Z,37.68
2023-05-10T11:15:49.957Z,38.65
2023-05-10T11:18:21.950Z,37.42
2023-05-10T11:21:14.434Z,39.04
2023-05-10T11:23:54.289Z,36.78
2023-05-10T11:26:24.770Z,36.41
2023-05-10T11:28:58.275Z,37.02
2023-05-10T11:31:27.806Z,37.58
2023-05-10T11:33:59.924Z,37.15
2023-05-10T11:36:29.442Z,36.48
2023-05-10T11:38:59.734Z,36.08
2023-05-10T11:41:30.748Z,36.59
2023-05-10T11:43:59.242Z,36.31
2023-05-10T11:46:30.162Z,37.54
2023-05-10T11:49:03.048Z,35.43
2023-05-10T11:51:35.892Z,36.84
2023-05-10T11:54:07.446Z,37.15
2023-05-10T11:56:34.340Z,36.36
2023-05-10T11:59:02.839Z,37.25
2023-05-10T12:01:29.975Z,36.63
2023-05-10T12:04:00.649Z,36.73
2023-05-10T12:06:29.979Z,35.66
2023-05-10T12:08:59.453Z,36.05
2023-05-10T12:11:28.316Z,35.96
2023-05-10T12:14:03.967Z,35.73
2023-05-10T12:16:31.237Z,35.75
2023-05-10T12:18:59.428Z,34.31
2023-05-10T12:21:26.845Z,35.01
2023-05-10T12:23:56.607Z,35.51
2023-05-10T12:26:24.241Z,34.92
2023-05-10T12:28:52.270Z,35.35
2023-05-10T12:31:19.628Z,34.84
2023-05-10T12:33:50.552Z,34.90
2023-05-10T12:39:07.399Z,34.67
2023-05-10T12:41:43.610Z,34.39
2023-05-10T12:44:10.517Z,35.75
2023-05-10T12:46:37.826Z,34.86
2023-05-10T12:49:09.360Z,33.70
2023-05-10T12:51:36.461Z,33.62
2023-05-10T12:54:04.265Z,34.71
2023-05-10T12:56:31.096Z,35.30
2023-05-10T12:58:57.699Z,34.98
2023-05-10T13:01:34.801Z,34.27
2023-05-10T13:04:01.627Z,35.02
2023-05-10T13:06:28.317Z,34.23
2023-05-10T13:08:54.960Z,34.06
2023-05-10T13:11:22.762Z,33.73
2023-05-10T13:13:50.720Z,33.94
2023-05-10T13:16:17.538Z,34.28
2023-05-10T13:18:44.384Z,33.83
2023-05-10T13:23:58.007Z,33.40
2023-05-10T13:26:25.148Z,32.97
2023-05-10T13:28:52.886Z,33.22
2023-05-10T13:31:20.014Z,32.86
2023-05-10T13:33:54.452Z,32.62
2023-05-10T13:36:21.587Z,32.92
2023-05-10T13:38:48.334Z,33.06
2023-05-10T13:41:15.265Z,32.51
2023-05-10T13:43:42.001Z,32.32
2023-05-10T13:46:08.835Z,34.81
2023-05-10T13:48:38.140Z,33.91
2023-05-10T13:51:05.530Z,33.64
2023-05-10T13:53:32.246Z,32.97
2023-05-10T13:55:59.150Z,32.50
2023-05-10T13:58:25.769Z,33.78
2023-05-10T14:00:52.429Z,33.47
2023-05-10T14:03:19.130Z,33.47
2023-05-10T14:05:46.392Z,32.59
2023-05-10T14:08:14.243Z,33.33
2023-05-10T14:10:40.969Z,32.51
2023-05-10T14:13:07.671Z,33.07
2023-05-10T14:15:34.302Z,33.38
2023-05-10T14:18:01.546Z,33.50
2023-05-10T14:20:28.261Z,34.05
2023-05-10T14:22:54.826Z,34.93
2023-05-10T14:25:21.783Z,35.98
2023-05-10T14:27:48.857Z,34.97
2023-05-10T14:30:16.127Z,34.42
2023-05-10T14:32:43.045Z,33.92
2023-05-10T14:35:12.818Z,34.48
2023-05-10T14:37:40.196Z,34.97
2023-05-10T14:40:08.495Z,34.94
2023-05-10T14:42:42.712Z,34.18
2023-05-10T14:45:10.120Z,34.72
2023-05-10T14:47:42.983Z,34.46
2023-05-10T14:50:21.477Z,33.91
2023-05-10T14:53:00.602Z,33.80
2023-05-10T14:55:27.642Z,35.18
2023-05-10T14:58:05.870Z,35.91
2023-05-10T15:00:32.504Z,35.54
2023-05-10T15:03:10.421Z,35.58
2023-05-10T15:05:42.427Z,36.03
2023-05-10T15:08:10.645Z,36.77
2023-05-10T15:10:37.970Z,36.48
2023-05-10T15:13:05.375Z,37.32
2023-05-10T15:15:32.458Z,37.23
2023-05-10T15:17:59.316Z,36.76
2023-05-10T15:20:26.036Z,38.25
2023-05-10T15:22:52.798Z,38.34
2023-05-10T15:25:19.661Z,37.75
2023-05-10T15:27:46.468Z,36.68
2023-05-10T15:30:13.483Z,37.71
2023-05-10T15:32:41.226Z,38.08
2023-05-10T15:35:10.558Z,37.73
2023-05-10T15:37:42.468Z,36.96
2023-05-10T15:40:09.571Z,36.76
2023-05-10T15:42:36.765Z,36.40
2023-05-10T15:45:03.834Z,38.78
2023-05-10T15:47:31.561Z,42.49
2023-05-10T15:49:58.446Z,44.13
2023-05-10T15:52:25.221Z,46.58
2023-05-10T15:54:52.425Z,46.68
2023-05-10T15:57:42.724Z,45.08
2023-05-10T16:00:13.398Z,48.09
2023-05-10T16:02:41.484Z,51.69
2023-05-10T16:05:09.789Z,53.38
2023-05-10T16:07:36.954Z,55.40
2023-05-10T16:10:11.300Z,55.20
2023-05-10T16:12:38.536Z,58.97
2023-05-10T16:15:06.846Z,60.10
2023-05-10T16:17:33.727Z,59.51
2023-05-10T16:20:01.437Z,60.41
2023-05-10T16:22:29.225Z,60.49
2023-05-10T16:24:57.433Z,61.87
2023-05-10T16:27:24.471Z,60.92
2023-05-10T16:29:51.250Z,59.47
2023-05-10T16:32:18.193Z,60.30
2023-05-10T16:34:45.095Z,58.66
2023-05-10T16:37:11.978Z,59.07
2023-05-10T16:39:39.009Z,60.25
2023-05-10T16:42:06.353Z,58.44
2023-05-10T16:44:33.883Z,60.08
2023-05-10T16:47:00.818Z,61.85
2023-05-10T16:49:27.506Z,62.96
2023-05-10T16:51:54.777Z,61.90
2023-05-10T16:54:22.131Z,62.27
2023-05-10T16:56:49.052Z,62.90
2023-05-10T16:59:16.492Z,64.15
2023-05-10T17:01:43.641Z,64.45
2023-05-10T17:04:10.448Z,64.96
2023-05-10T17:06:37.765Z,67.54
2023-05-10T17:09:06.217Z,66.44
2023-05-10T17:11:34.423Z,69.70
2023-05-10T17:14:01.860Z,69.44
2023-05-10T17:16:29.904Z,70.93
2023-05-10T17:18:56.830Z,71.18
2023-05-10T17:21:23.974Z,71.80
2023-05-10T17:23:51.432Z,72.16
2023-05-10T17:26:18.322Z,72.36
2023-05-10T17:28:45.084Z,72.42
2023-05-10T17:31:12.249Z,74.17
2023-05-10T17:33:39.427Z,79.03
2023-05-10T17:36:06.533Z,83.33
2023-05-10T17:38:33.476Z,85.90
2023-05-10T17:41:00.460Z,87.67
2023-05-10T17:43:27.093Z,88.28
2023-05-10T17:45:53.821Z,88.41
2023-05-10T17:48:20.898Z,89.57
2023-05-10T17:50:50.573Z,90.91
2023-05-10T17:53:17.450Z,91.02
2023-05-10T17:55:44.184Z,90.88
2023-05-10T17:58:12.432Z,92.00
2023-05-10T18:00:39.657Z,92.44
2023-05-10T18:03:06.307Z,92.72
2023-05-10T18:05:37.506Z,93.45
2023-05-10T18:08:05.231Z,94.96
2023-05-10T18:10:32.334Z,96.12
2023-05-10T18:12:59.428Z,98.14
2023-05-10T18:15:27.872Z,100.00
2023-05-10T18:17:56.256Z,100.00
2023-05-10T18:20:23.464Z,100.00
2023-05-10T18:22:50.420Z,100.00
2023-05-10T18:25:17.524Z,100.00
2023-05-10T18:27:44.472Z,100.00
2023-05-10T18:30:12.632Z,100.00
2023-05-10T18:32:39.909Z,100.00
2023-05-10T18:35:08.683Z,100.00
2023-05-10T18:37:36.448Z,100.00
2023-05-10T18:40:05.121Z,100.00
2023-05-10T18:42:32.020Z,100.00
2023-05-10T18:44:58.752Z,100.00
2023-05-10T18:47:26.788Z,100.00
2023-05-10T18:49:53.629Z,100.00
2023-05-10T18:52:20.461Z,100.00
2023-05-10T18:54:47.161Z,100.00
2023-05-10T18:57:13.952Z,100.00
2023-05-10T18:59:41.068Z,100.00
2023-05-10T19:02:08.395Z,100.00
2023-05-10T19:04:35.216Z,100.00
2023-05-10T19:07:03.164Z,100.00
2023-05-10T19:09:29.858Z,100.00
2023-05-10T19:11:56.909Z,100.00
2023-05-10T19:14:25.458Z,100.00
2023-05-10T19:16:53.135Z,100.00
2023-05-10T19:19:20.594Z,100.00
2023-05-10T19:21:48.369Z,100.00
2023-05-10T19:24:15.150Z,100.00
2023-05-10T19:26:41.995Z,100.00
2023-05-10T19:29:09.480Z,100.00
2023-05-10T19:31:36.173Z,100.00
2023-05-10T19:34:04.203Z,100.00
2023-05-10T19:36:33.316Z,100.00
2023-05-10T19:39:00.122Z,100.00
2023-05-10T19:41:26.962Z,100.00
2023-05-10T19:43:54.009Z,100.00
2023-05-10T19:46:20.774Z,100.00
2023-05-10T19:48:48.686Z,100.00
2023-05-10T19:51:16.787Z,100.00
2023-05-10T19:53:45.113Z,100.00
2023-05-10T19:56:13.170Z,100.00
2023-05-10T19:58:40.013Z,100.00
2023-05-10T20:01:07.965Z,100.00
2023-05-10T20:03:36.013Z,100.00
2023-05-10T20:06:04.088Z,100.00
2023-05-10T20:08:31.527Z,100.00
2023-05-10T20:10:59.185Z,100.00
2023-05-10T20:13:26.331Z,100.00
2023-05-10T20:15:57.934Z,100.00
2023-05-10T20:18:24.956Z,100.00
2023-05-10T20:20:56.320Z,100.00
2023-05-10T20:23:23.426Z,100.00
2023-05-10T20:25:50.344Z,100.00
2023-05-10T20:28:23.074Z,100.00
2023-05-10T20:30:53.435Z,100.00
2023-05-10T20:33:20.835Z,100.00
2023-05-10T20:35:47.581Z,100.00
2023-05-10T20:38:14.445Z,100.00
2023-05-10T20:40:41.691Z,100.00
2023-05-10T20:43:08.441Z,100.00
2023-05-10T20:45:37.577Z,100.00
2023-05-10T20:48:05.260Z,100.00
2023-05-10T20:50:32.178Z,100.00
2023-05-10T20:53:00.662Z,100.00
2023-05-10T20:55:28.251Z,100.00
2023-05-10T20:57:55.152Z,100.00
2023-05-10T21:00:22.042Z,100.00
2023-05-10T21:02:48.900Z,100.00
2023-05-10T21:05:16.804Z,100.00
2023-05-10T21:07:43.459Z,100.00
2023-05-10T21:10:11.718Z,100.00
2023-05-10T21:12:38.768Z,100.00
2023-05-10T21:15:05.929Z,100.00
2023-05-10T21:17:33.333Z,100.00
2023-05-10T21:20:00.092Z,100.00
2023-05-10T21:22:26.924Z,100.00
2023-05-10T21:24:53.762Z,100.00
2023-05-10T21:27:20.624Z,100.00
2023-05-10T21:29:47.209Z,100.00
2023-05-10T21:32:14.985Z,100.00
2023-05-10T21:34:41.873Z,100.00
2023-05-10T21:37:08.509Z,100.00
2023-05-10T21:39:35.130Z,100.00
2023-05-10T21:42:01.791Z,100.00
2023-05-10T21:44:28.408Z,100.00
2023-05-10T21:46:56.087Z,100.00
2023-05-10T21:49:22.704Z,100.00
2023-05-10T21:51:49.389Z,100.00
2023-05-10T21:54:15.993Z,100.00
2023-05-10T21:56:42.592Z,100.00
2023-05-10T21:59:09.221Z,100.00
2023-05-10T22:01:35.926Z,100.00
2023-05-10T22:04:02.544Z,100.00
2023-05-10T22:06:29.157Z,100.00
2023-05-10T22:08:55.822Z,100.00
2023-05-10T22:11:23.248Z,100.00
2023-05-10T22:13:49.865Z,100.00
2023-05-10T22:16:16.485Z,100.00
2023-05-10T22:18:43.751Z,100.00
2023-05-10T22:21:10.583Z,100.00
2023-05-10T22:23:37.206Z,100.00
2023-05-10T22:26:04.347Z,100.00
2023-05-10T22:28:31.003Z,100.00
2023-05-10T22:30:57.610Z,100.00
2023-05-10T22:33:24.292Z,100.00
2023-05-10T22:35:50.907Z,100.00
2023-05-10T22:38:17.583Z,100.00
2023-05-10T22:40:44.188Z,100.00
2023-05-10T22:43:10.947Z,100.00
2023-05-10T22:45:37.634Z,100.00
2023-05-10T22:48:05.330Z,100.00
2023-05-10T22:50:32.047Z,100.00
2023-05-10T22:52:58.628Z,100.00
2023-05-10T22:55:25.296Z,100.00
2023-05-10T22:57:52.401Z,100.00
2023-05-10T23:00:19.688Z,100.00
2023-05-10T23:02:46.724Z,100.00
2023-05-10T23:05:13.757Z,100.00
2023-05-10T23:07:40.599Z,100.00
2023-05-10T23:10:07.730Z,100.00
2023-05-10T23:12:34.716Z,100.00
2023-05-10T23:15:01.401Z,100.00
2023-05-10T23:17:28.379Z,100.00
2023-05-10T23:19:55.036Z,100.00
2023-05-10T23:22:21.872Z,100.00
2023-05-10T23:24:48.450Z,100.00
2023-05-10T23:27:15.102Z,100.00
2023-05-10T23:29:41.742Z,100.00
2023-05-10T23:32:08.399Z,100.00
2023-05-10T23:34:35.048Z,100.00
2023-05-10T23:37:02.062Z,100.00
2023-05-10T23:39:28.667Z,100.00
2023-05-10T23:41:55.572Z,100.00
2023-05-10T23:44:22.171Z,100.00
2023-05-10T23:46:48.765Z,100.00
2023-05-10T23:49:15.378Z,100.00
2023-05-10T23:51:41.971Z,100.00
2023-05-10T23:54:08.766Z,100.00
2023-05-10T23:56:35.336Z,100.00
2023-05-10T23:59:01.954Z,100.00
